createdAt,value
2022-08-16T00:03:46.683Z,100.00
2022-08-16T00:08:50.102Z,100.00
2022-08-16T00:13:56.194Z,100.00
2022-08-16T00:19:01.501Z,100.00
2022-08-16T00:24:06.383Z,100.00
2022-08-16T00:29:16.948Z,100.00
2022-08-16T00:34:43.465Z,100.00
2022-08-16T00:39:47.664Z,100.00
2022-08-16T00:44:57.572Z,100.00
2022-08-16T00:50:02.305Z,100.00
2022-08-16T00:55:08.442Z,100.00
2022-08-16T01:00:13.447Z,100.00
2022-08-16T01:05:25.573Z,100.00
2022-08-16T01:10:33.559Z,100.00
2022-08-16T01:15:43.078Z,100.00
2022-08-16T01:20:54.654Z,100.00
2022-08-16T01:26:33.517Z,100.00
2022-08-16T01:31:31.019Z,100.00
2022-08-16T01:36:36.530Z,100.00
2022-08-16T01:41:44.211Z,100.00
2022-08-16T01:46:50.100Z,100.00
2022-08-16T01:51:58.891Z,100.00
2022-08-16T01:57:13.357Z,100.00
2022-08-16T02:02:26.540Z,100.00
2022-08-16T02:07:33.055Z,100.00
2022-08-16T02:12:43.621Z,100.00
2022-08-16T02:17:54.722Z,100.00
2022-08-16T02:23:00.131Z,100.00
2022-08-16T02:28:06.977Z,100.00
2022-08-16T02:33:15.428Z,100.00
2022-08-16T02:38:19.581Z,100.00
2022-08-16T02:43:27.215Z,100.00
2022-08-16T02:48:33.525Z,100.00
2022-08-16T02:53:40.508Z,100.00
2022-08-16T02:58:53.213Z,100.00
2022-08-16T03:04:40.064Z,100.00
2022-08-16T03:09:23.583Z,100.00
2022-08-16T03:14:32.531Z,100.00
2022-08-16T03:19:59.403Z,100.00
2022-08-16T03:25:04.601Z,100.00
2022-08-16T03:30:18.409Z,100.00
2022-08-16T03:35:32.727Z,100.00
2022-08-16T03:40:53.355Z,100.00
2022-08-16T03:46:01.566Z,100.00
2022-08-16T03:51:13.578Z,100.00
2022-08-16T03:56:23.597Z,100.00
2022-08-16T04:01:30.786Z,100.00
2022-08-16T04:06:36.556Z,100.00
2022-08-16T04:11:41.093Z,100.00
2022-08-16T04:16:45.876Z,100.00
2022-08-16T04:22:08.597Z,100.00
2022-08-16T04:27:20.692Z,100.00
2022-08-16T04:32:25.862Z,100.00
2022-08-16T04:37:30.624Z,100.00
2022-08-16T04:42:46.007Z,100.00
2022-08-16T04:47:55.979Z,100.00
2022-08-16T04:53:02.190Z,100.00
2022-08-16T04:58:44.538Z,100.00
2022-08-16T05:03:41.886Z,100.00
2022-08-16T05:08:59.642Z,100.00
2022-08-16T05:14:07.083Z,100.00
2022-08-16T05:19:16.364Z,100.00
2022-08-16T05:24:39.592Z,100.00
2022-08-16T05:29:59.339Z,100.00
2022-08-16T05:35:10.942Z,100.00
2022-08-16T05:40:19.263Z,100.00
2022-08-16T05:45:25.493Z,100.00
2022-08-16T05:50:34.437Z,100.00
2022-08-16T05:55:41.057Z,100.00
2022-08-16T06:00:45.192Z,100.00
2022-08-16T06:05:53.971Z,100.00
2022-08-16T06:11:05.663Z,91.39
2022-08-16T06:16:18.418Z,78.52
2022-08-16T06:21:27.138Z,68.70
2022-08-16T06:26:44.590Z,62.53
2022-08-16T06:32:04.297Z,58.38
2022-08-16T06:37:09.413Z,53.17
2022-08-16T06:42:14.872Z,47.01
2022-08-16T06:47:53.656Z,44.54
2022-08-16T06:58:34.083Z,38.64
2022-08-16T07:03:55.314Z,36.21
2022-08-16T07:09:09.704Z,34.09
2022-08-16T07:14:24.165Z,33.39
2022-08-16T07:20:04.035Z,32.45
2022-08-16T07:25:01.570Z,31.47
2022-08-16T07:30:26.648Z,30.51
2022-08-16T07:35:32.607Z,29.08
2022-08-16T07:41:00.410Z,29.59
2022-08-16T07:46:02.008Z,30.67
2022-08-16T07:51:09.770Z,29.75
2022-08-16T07:56:18.888Z,30.02
2022-08-16T08:01:24.830Z,30.36
2022-08-16T08:06:34.977Z,30.60
2022-08-16T08:12:00.028Z,30.37
2022-08-16T08:17:13.775Z,29.54
2022-08-16T08:22:19.375Z,29.57
2022-08-16T08:27:32.582Z,31.42
2022-08-16T08:32:57.919Z,32.84
2022-08-16T08:38:04.551Z,31.74
2022-08-16T08:43:18.275Z,33.66
2022-08-16T08:48:36.949Z,36.14
2022-08-16T08:53:43.853Z,39.73
2022-08-16T08:59:00.196Z,38.16
2022-08-16T09:04:17.552Z,41.92
2022-08-16T09:09:33.618Z,41.67
2022-08-16T09:14:49.555Z,42.73
2022-08-16T09:19:59.393Z,42.96
2022-08-16T09:25:09.911Z,43.28
2022-08-16T09:30:34.486Z,42.82
2022-08-16T09:35:45.795Z,44.03
2022-08-16T09:40:58.706Z,46.90
2022-08-16T09:46:46.027Z,47.35
2022-08-16T09:51:36.912Z,44.47
2022-08-16T09:56:51.406Z,39.99
2022-08-16T10:02:26.228Z,39.84
2022-08-16T10:07:38.319Z,43.93
2022-08-16T10:13:06.302Z,42.15
2022-08-16T10:18:56.534Z,39.02
2022-08-16T10:23:36.655Z,41.28
2022-08-16T10:28:41.946Z,40.07
2022-08-16T10:33:47.322Z,35.03
2022-08-16T10:38:52.128Z,34.24
2022-08-16T10:43:55.799Z,34.94
2022-08-16T10:49:05.201Z,35.67
2022-08-16T10:54:29.457Z,37.80
2022-08-16T10:59:45.968Z,36.60
2022-08-16T11:05:06.379Z,35.78
2022-08-16T11:15:35.271Z,34.70
2022-08-16T11:20:43.194Z,33.83
2022-08-16T11:26:10.403Z,35.97
2022-08-16T11:31:16.400Z,36.48
2022-08-16T11:36:27.636Z,36.79
2022-08-16T11:41:33.407Z,37.55
2022-08-16T11:46:45.081Z,37.08
2022-08-16T11:51:51.771Z,35.04
2022-08-16T11:56:57.438Z,34.88
2022-08-16T12:02:11.592Z,37.21
2022-08-16T12:07:26.038Z,36.29
2022-08-16T12:12:32.663Z,36.90
2022-08-16T12:17:36.814Z,33.74
2022-08-16T12:22:43.183Z,35.29
2022-08-16T12:27:49.706Z,35.30
2022-08-16T12:32:57.855Z,35.16
2022-08-16T12:38:08.652Z,34.14
2022-08-16T12:43:31.281Z,36.23
2022-08-16T12:48:52.693Z,36.50
2022-08-16T12:53:59.085Z,35.83
2022-08-16T12:59:06.629Z,36.34
2022-08-16T13:04:20.483Z,37.76
2022-08-16T13:09:28.890Z,38.25
2022-08-16T13:14:34.889Z,37.30
2022-08-16T13:20:09.669Z,37.43
2022-08-16T13:25:03.694Z,34.62
2022-08-16T13:30:36.519Z,33.75
2022-08-16T13:35:34.877Z,30.80
2022-08-16T13:40:40.610Z,28.74
2022-08-16T13:45:50.406Z,26.35
2022-08-16T13:50:56.325Z,27.00
2022-08-16T13:56:01.302Z,27.67
2022-08-16T14:01:09.809Z,28.60
2022-08-16T14:06:14.796Z,26.03
2022-08-16T14:11:19.614Z,25.50
2022-08-16T14:16:24.581Z,26.66
2022-08-16T14:21:42.998Z,26.44
2022-08-16T14:26:58.294Z,25.83
2022-08-16T14:32:06.486Z,26.69
2022-08-16T14:37:10.259Z,25.24
2022-08-16T14:42:18.211Z,27.38
2022-08-16T14:47:22.418Z,28.52
2022-08-16T14:52:52.056Z,28.94
2022-08-16T14:57:54.156Z,29.31
2022-08-16T15:02:59.926Z,27.77
2022-08-16T15:08:05.227Z,27.96
2022-08-16T15:13:10.725Z,29.89
2022-08-16T15:18:23.500Z,32.62
2022-08-16T15:23:34.067Z,32.89
2022-08-16T15:28:39.273Z,35.56
2022-08-16T15:33:51.093Z,33.07
2022-08-16T15:39:07.714Z,36.19
2022-08-16T15:44:26.577Z,40.83
2022-08-16T15:49:37.346Z,42.83
2022-08-16T15:54:52.415Z,43.94
2022-08-16T16:00:04.696Z,45.29
2022-08-16T16:05:19.625Z,46.93
2022-08-16T16:10:29.286Z,48.12
2022-08-16T16:15:37.648Z,49.75
2022-08-16T16:20:46.868Z,51.05
2022-08-16T16:25:50.312Z,50.72
2022-08-16T16:30:57.075Z,52.71
2022-08-16T16:36:03.400Z,54.58
2022-08-16T16:41:10.259Z,57.55
2022-08-16T16:46:39.327Z,58.47
2022-08-16T16:51:44.934Z,59.78
2022-08-16T16:56:53.212Z,60.86
2022-08-16T17:02:38.512Z,62.70
2022-08-16T17:07:24.329Z,64.23
2022-08-16T17:12:46.764Z,66.79
2022-08-16T17:18:00.270Z,68.76
2022-08-16T17:23:05.964Z,71.04
2022-08-16T17:28:58.503Z,73.74
2022-08-16T17:33:54.134Z,73.97
2022-08-16T17:39:00.150Z,77.92
2022-08-16T17:44:04.339Z,80.49
2022-08-16T17:49:09.018Z,81.32
2022-08-16T17:54:16.959Z,83.46
2022-08-16T17:59:41.114Z,83.39
2022-08-16T18:04:49.349Z,86.41
2022-08-16T18:09:53.452Z,87.62
2022-08-16T18:15:00.162Z,87.17
2022-08-16T18:20:05.781Z,87.94
2022-08-16T18:25:09.895Z,88.92
2022-08-16T18:30:17.674Z,89.31
2022-08-16T18:35:23.340Z,88.82
2022-08-16T18:40:27.297Z,88.88
2022-08-16T18:45:35.674Z,90.10
2022-08-16T18:50:59.691Z,91.24
2022-08-16T18:56:06.605Z,91.49
2022-08-16T19:01:10.110Z,91.64
2022-08-16T19:06:15.700Z,94.49
2022-08-16T19:11:25.759Z,96.54
2022-08-16T19:16:29.241Z,97.65
2022-08-16T19:21:33.993Z,100.00
2022-08-16T19:26:37.377Z,100.00
2022-08-16T19:31:40.729Z,100.00
2022-08-16T19:36:45.421Z,100.00
2022-08-16T19:41:51.981Z,100.00
2022-08-16T19:46:58.062Z,100.00
2022-08-16T19:52:12.405Z,100.00
2022-08-16T19:57:17.778Z,100.00
2022-08-16T20:02:36.184Z,100.00
2022-08-16T20:07:41.499Z,100.00
2022-08-16T20:13:02.286Z,100.00
2022-08-16T20:18:12.470Z,100.00
2022-08-16T20:23:29.860Z,100.00
2022-08-16T20:28:49.999Z,100.00
2022-08-16T20:33:56.538Z,100.00
2022-08-16T20:39:04.012Z,100.00
2022-08-16T20:44:08.062Z,100.00
2022-08-16T20:49:13.281Z,100.00
2022-08-16T20:54:18.229Z,100.00
2022-08-16T20:59:21.850Z,100.00
2022-08-16T21:04:27.765Z,100.00
2022-08-16T21:09:35.618Z,100.00
2022-08-16T21:14:39.107Z,100.00
2022-08-16T21:19:42.576Z,100.00
2022-08-16T21:24:48.402Z,100.00
2022-08-16T21:29:57.970Z,100.00
2022-08-16T21:35:08.182Z,100.00
2022-08-16T21:40:13.769Z,100.00
2022-08-16T21:45:17.317Z,100.00
2022-08-16T21:50:20.716Z,100.00
2022-08-16T21:55:26.498Z,100.00
2022-08-16T22:00:30.582Z,100.00
2022-08-16T22:05:35.492Z,100.00
2022-08-16T22:11:05.093Z,100.00
2022-08-16T22:16:06.758Z,100.00
2022-08-16T22:21:10.073Z,100.00
2022-08-16T22:26:16.312Z,100.00
2022-08-16T22:31:21.258Z,100.00
2022-08-16T22:36:30.113Z,100.00
2022-08-16T22:41:36.211Z,100.00
2022-08-16T22:46:39.934Z,100.00
2022-08-16T22:51:43.511Z,100.00
2022-08-16T22:56:48.435Z,100.00
2022-08-16T23:01:51.953Z,100.00
2022-08-16T23:06:55.419Z,100.00
2022-08-16T23:12:02.671Z,100.00
2022-08-16T23:17:06.175Z,100.00
2022-08-16T23:22:09.714Z,100.00
2022-08-16T23:27:14.358Z,100.00
2022-08-16T23:32:17.676Z,100.00
2022-08-16T23:37:20.973Z,100.00
2022-08-16T23:42:52.560Z,100.00
2022-08-16T23:47:49.426Z,100.00
2022-08-16T23:53:02.270Z,100.00
2022-08-16T23:58:07.342Z,100.00
